Time;durP1;ratioP1;P1;durP2;ratioP2;P2;SDS_P1;SDS_P2;PMS_P1;PMS_P2;Temp;Humidity;BMP_temperature;BMP_pressure;BME280_temperature;BME280_humidity;BME280_pressure;Samples;Min_cycle;Max_cycle;Signal;HPM_P1;HPM_P2
2021/09/07 00:00:22;;;;;;;;;;;15.20;1.00;;;;;;5090657;28;19961;-70
2021/09/07 00:02:47;;;;;;;;;;;15.10;1.00;;;;;;5090279;28;19936;-70
2021/09/07 00:05:13;;;;;;;;;;;15.10;99.90;;;;;;5071709;28;19912;-69
2021/09/07 00:07:38;;;;;;;;;;;15.10;99.90;;;;;;5072494;28;19963;-69
2021/09/07 00:10:05;;;;;;;;;;;15.00;99.90;;;;;;5089726;28;19970;-69
2021/09/07 00:12:31;;;;;;;;;;;15.00;99.90;;;;;;5089722;28;19912;-70
2021/09/07 00:14:56;;;;;;;;;;;15.00;1.00;;;;;;5090223;28;19927;-69
2021/09/07 00:17:22;;;;;;;;;;;14.90;1.00;;;;;;5090802;28;19919;-69
2021/09/07 00:19:47;;;;;;;;;;;14.90;1.00;;;;;;5089929;28;20409;-70
2021/09/07 00:22:13;;;;;;;;;;;14.90;1.00;;;;;;5089706;28;19958;-69
2021/09/07 00:24:38;;;;;;;;;;;14.90;1.00;;;;;;5089827;28;19969;-69
2021/09/07 00:27:04;;;;;;;;;;;14.90;1.00;;;;;;5089927;28;20287;-70
2021/09/07 00:29:29;;;;;;;;;;;14.90;1.00;;;;;;5076670;28;19934;-70
2021/09/07 00:31:55;;;;;;;;;;;14.80;1.00;;;;;;5069240;28;19909;-69
2021/09/07 00:34:20;;;;;;;;;;;14.80;1.00;;;;;;5069458;28;19951;-70
2021/09/07 00:36:46;;;;;;;;;;;14.80;1.00;;;;;;5069935;28;19912;-69
2021/09/07 00:39:12;;;;;;;;;;;14.70;1.00;;;;;;5069578;28;19923;-69
2021/09/07 00:41:39;;;;;;;;;;;14.70;1.00;;;;;;5069215;28;19908;-69
2021/09/07 00:44:17;;;;;;;;;;;14.70;1.00;;;;;;5069076;28;20241;-69
2021/09/07 00:46:47;;;;;;;;;;;14.70;1.00;;;;;;5069814;28;19954;-69
2021/09/07 00:49:13;;;;;;;;;;;14.70;1.00;;;;;;5069768;28;19912;-69
2021/09/07 00:51:39;;;;;;;;;;;14.70;1.00;;;;;;5095046;28;19988;-70
2021/09/07 00:54:04;;;;;;;;;;;14.70;1.00;;;;;;5102935;28;19908;-70
2021/09/07 00:56:32;;;;;;;;;;;14.70;1.00;;;;;;5109813;28;19919;-70
2021/09/07 00:58:57;;;;;;;;;;;14.80;1.00;;;;;;5110167;28;20265;-69
2021/09/07 01:01:23;;;;;;;;;;;14.80;1.00;;;;;;5110432;28;19918;-69
2021/09/07 01:03:48;;;;;;;;;;;14.70;1.00;;;;;;5109472;28;19919;-69
2021/09/07 01:06:14;;;;;;;;;;;14.70;1.00;;;;;;5109854;28;19939;-69
2021/09/07 01:08:40;;;;;;;;;;;14.70;1.00;;;;;;5109905;28;19912;-72
2021/09/07 01:11:05;;;;;;;;;;;14.70;99.90;;;;;;5109568;28;19908;-68
2021/09/07 01:13:30;;;;;;;;;;;14.70;1.00;;;;;;5104819;28;19919;-71
2021/09/07 01:15:56;;;;;;;;;;;14.70;99.90;;;;;;5089911;28;20002;-71
2021/09/07 01:18:22;;;;;;;;;;;14.70;99.90;;;;;;5089525;28;19915;-71
2021/09/07 01:20:47;;;;;;;;;;;14.70;99.90;;;;;;5089819;28;19995;-71
2021/09/07 01:23:12;;;;;;;;;;;14.60;99.90;;;;;;5089309;28;19916;-71
2021/09/07 01:25:38;;;;;;;;;;;14.60;1.00;;;;;;5107810;28;20005;-71
2021/09/07 01:28:03;;;;;;;;;;;14.60;1.00;;;;;;5108537;28;19931;-70
2021/09/07 01:30:29;;;;;;;;;;;14.50;1.00;;;;;;5089563;28;19919;-69
2021/09/07 01:32:55;;;;;;;;;;;14.40;24.40;;;;;;5088901;28;19934;-69
2021/09/07 01:35:21;;;;;;;;;;;14.40;99.90;;;;;;5089226;28;19922;-70
2021/09/07 01:37:47;;;;;;;;;;;14.30;99.90;;;;;;5096695;28;19918;-70
2021/09/07 01:40:12;;;;;;;;;;;14.30;1.00;;;;;;5108384;28;20500;-70
2021/09/07 01:42:38;;;;;;;;;;;14.20;1.00;;;;;;5109225;28;19923;-71
2021/09/07 01:45:03;;;;;;;;;;;14.10;1.00;;;;;;5109731;28;19908;-70
2021/09/07 01:47:29;;;;;;;;;;;14.10;1.00;;;;;;5109757;28;19915;-70
2021/09/07 01:49:54;;;;;;;;;;;14.20;1.00;;;;;;5106078;28;19991;-70
2021/09/07 01:52:20;;;;;;;;;;;14.10;1.00;;;;;;5088446;28;19947;-70
2021/09/07 01:54:46;;;;;;;;;;;14.10;1.00;;;;;;5088955;28;19912;-71
2021/09/07 01:57:12;;;;;;;;;;;14.10;1.00;;;;;;5088542;28;19912;-71
2021/09/07 01:59:38;;;;;;;;;;;14.10;1.00;;;;;;5089549;28;19913;-70
2021/09/07 02:02:04;;;;;;;;;;;14.00;1.00;;;;;;5088281;28;19912;-70
2021/09/07 02:04:29;;;;;;;;;;;14.00;1.00;;;;;;5088818;28;19919;-70
2021/09/07 02:06:55;;;;;;;;;;;14.00;1.00;;;;;;5089126;28;20296;-70
2021/09/07 02:09:21;;;;;;;;;;;14.00;1.00;;;;;;5089167;28;19923;-70
2021/09/07 02:11:46;;;;;;;;;;;13.90;1.00;;;;;;5090866;28;19912;-71
2021/09/07 02:14:12;;;;;;;;;;;13.90;1.00;;;;;;5092851;28;19908;-71
2021/09/07 02:16:38;;;;;;;;;;;13.80;1.00;;;;;;5092388;28;19912;-71
2021/09/07 02:19:03;;;;;;;;;;;13.70;1.00;;;;;;5092394;28;20368;-70
2021/09/07 02:21:29;;;;;;;;;;;13.70;1.00;;;;;;5093111;28;20436;-70
2021/09/07 02:23:54;;;;;;;;;;;13.70;1.00;;;;;;5096725;28;19915;-70
2021/09/07 02:26:20;;;;;;;;;;;13.60;1.00;;;;;;5105259;28;19912;-70
2021/09/07 02:28:45;;;;;;;;;;;13.60;12.40;;;;;;5098882;28;19927;-71
2021/09/07 02:31:11;;;;;;;;;;;13.50;94.20;;;;;;5112854;28;19907;-71
2021/09/07 02:33:36;;;;;;;;;;;13.50;99.90;;;;;;5111503;28;19915;-70
2021/09/07 02:36:02;;;;;;;;;;;13.50;99.90;;;;;;5112615;28;19918;-71
2021/09/07 02:38:27;;;;;;;;;;;13.40;99.90;;;;;;5098835;28;19915;-71
2021/09/07 02:40:57;;;;;;;;;;;13.40;99.90;;;;;;5091981;28;20436;-70
2021/09/07 02:43:24;;;;;;;;;;;13.40;99.90;;;;;;5091747;28;19908;-70
2021/09/07 02:45:50;;;;;;;;;;;13.40;99.90;;;;;;5091905;28;19908;-70
2021/09/07 02:48:15;;;;;;;;;;;13.30;99.90;;;;;;5091975;28;20262;-70
2021/09/07 02:50:40;;;;;;;;;;;13.30;99.90;;;;;;5091619;28;19912;-71
2021/09/07 02:53:06;;;;;;;;;;;13.30;99.90;;;;;;5091357;28;19947;-71
2021/09/07 02:55:31;;;;;;;;;;;13.30;99.90;;;;;;5088699;28;20006;-70
2021/09/07 02:57:57;;;;;;;;;;;13.30;99.90;;;;;;5103460;28;19908;-71
2021/09/07 03:00:22;;;;;;;;;;;13.20;99.90;;;;;;5111955;28;19954;-70
2021/09/07 03:02:48;;;;;;;;;;;13.20;99.90;;;;;;5111476;28;19970;-70
2021/09/07 03:05:13;;;;;;;;;;;13.20;99.90;;;;;;5093011;28;19919;-70
2021/09/07 03:07:39;;;;;;;;;;;13.20;99.90;;;;;;5112428;28;20270;-71
2021/09/07 03:10:05;;;;;;;;;;;13.20;99.90;;;;;;5111792;28;20352;-70
2021/09/07 03:12:30;;;;;;;;;;;13.20;99.90;;;;;;5111034;28;19918;-70
2021/09/07 03:14:56;;;;;;;;;;;13.20;99.90;;;;;;5094553;28;19916;-70
2021/09/07 03:17:21;;;;;;;;;;;13.10;1.00;;;;;;5091631;28;19908;-71
2021/09/07 03:19:47;;;;;;;;;;;13.00;1.00;;;;;;5090961;28;20006;-72
2021/09/07 03:22:12;;;;;;;;;;;13.00;1.00;;;;;;5090519;28;19911;-70
2021/09/07 03:24:37;;;;;;;;;;;12.90;1.00;;;;;;5101919;28;20386;-71
2021/09/07 03:27:03;;;;;;;;;;;12.90;1.00;;;;;;5103375;28;19912;-70
2021/09/07 03:29:29;;;;;;;;;;;12.90;1.00;;;;;;5098594;28;19914;-70
2021/09/07 03:31:54;;;;;;;;;;;12.90;1.00;;;;;;5110925;28;19998;-70
2021/09/07 03:34:20;;;;;;;;;;;12.90;1.00;;;;;;5111398;28;20611;-70
2021/09/07 03:36:45;;;;;;;;;;;12.90;1.00;;;;;;5111514;28;19912;-71
2021/09/07 03:39:11;;;;;;;;;;;12.80;1.00;;;;;;5092041;28;19919;-70
2021/09/07 03:41:36;;;;;;;;;;;12.80;1.00;;;;;;5090543;28;19962;-70
2021/09/07 03:44:01;;;;;;;;;;;12.70;1.00;;;;;;5091681;28;19909;-70
2021/09/07 03:46:27;;;;;;;;;;;12.70;1.00;;;;;;5108795;28;19912;-71
2021/09/07 03:48:52;;;;;;;;;;;12.60;1.00;;;;;;5111378;28;19908;-69
2021/09/07 03:51:18;;;;;;;;;;;12.60;1.00;;;;;;5097880;28;19912;-71
2021/09/07 03:53:46;;;;;;;;;;;12.60;1.00;;;;;;5090873;28;19912;-71
2021/09/07 03:56:12;;;;;;;;;;;12.60;1.00;;;;;;5091668;28;19996;-70
2021/09/07 03:58:37;;;;;;;;;;;12.60;1.00;;;;;;5107479;28;20361;-71
2021/09/07 04:01:02;;;;;;;;;;;12.60;1.00;;;;;;5092019;28;20011;-70
2021/09/07 04:03:28;;;;;;;;;;;12.50;1.00;;;;;;5090235;28;20303;-70
2021/09/07 04:05:53;;;;;;;;;;;12.50;1.00;;;;;;5092225;28;19912;-71
2021/09/07 04:08:19;;;;;;;;;;;12.50;1.00;;;;;;5097102;28;19912;-72
2021/09/07 04:10:44;;;;;;;;;;;12.50;1.00;;;;;;5092388;28;19908;-72
2021/09/07 04:13:10;;;;;;;;;;;12.40;1.00;;;;;;5090352;28;19916;-72
2021/09/07 04:15:36;;;;;;;;;;;12.40;1.00;;;;;;5091528;28;19938;-72
2021/09/07 04:18:01;;;;;;;;;;;12.40;1.00;;;;;;5091107;28;20286;-71
2021/09/07 04:20:26;;;;;;;;;;;12.40;1.00;;;;;;5090870;28;19912;-71
2021/09/07 04:22:52;;;;;;;;;;;12.30;1.00;;;;;;5090347;28;19908;-71
2021/09/07 04:25:18;;;;;;;;;;;12.30;1.00;;;;;;5107874;28;19912;-69
2021/09/07 04:27:43;;;;;;;;;;;12.30;1.00;;;;;;5111395;28;19915;-70
2021/09/07 04:30:10;;;;;;;;;;;12.30;1.00;;;;;;5091906;28;19908;-70
2021/09/07 04:32:35;;;;;;;;;;;12.40;1.00;;;;;;5090555;28;19908;-71
2021/09/07 04:35:02;;;;;;;;;;;12.30;1.00;;;;;;5088671;28;20365;-70
2021/09/07 04:37:27;;;;;;;;;;;12.30;1.00;;;;;;5095243;28;19923;-70
2021/09/07 04:39:53;;;;;;;;;;;12.30;1.00;;;;;;5110237;28;19912;-70
2021/09/07 04:42:19;;;;;;;;;;;12.30;1.00;;;;;;5109389;28;19919;-70
2021/09/07 04:44:44;;;;;;;;;;;12.30;1.00;;;;;;5110290;28;19908;-69
2021/09/07 04:47:10;;;;;;;;;;;12.30;1.00;;;;;;5110912;28;20304;-72
2021/09/07 04:49:36;;;;;;;;;;;12.30;1.00;;;;;;5107586;28;19918;-69
2021/09/07 04:52:02;;;;;;;;;;;12.30;1.00;;;;;;5092465;28;19961;-71
2021/09/07 04:54:27;;;;;;;;;;;12.30;1.00;;;;;;5090364;28;19917;-70
2021/09/07 04:56:53;;;;;;;;;;;12.40;1.00;;;;;;5086483;28;19965;-70
2021/09/07 04:59:18;;;;;;;;;;;12.40;1.00;;;;;;5089560;28;20000;-70
2021/09/07 05:01:44;;;;;;;;;;;12.40;1.00;;;;;;5089206;28;19912;-69
2021/09/07 05:04:09;;;;;;;;;;;12.50;1.00;;;;;;5084613;28;19923;-70
2021/09/07 05:06:35;;;;;;;;;;;12.60;1.00;;;;;;5077927;28;19940;-70
2021/09/07 05:09:00;;;;;;;;;;;12.70;1.00;;;;;;5069617;28;19909;-72
2021/09/07 05:11:26;;;;;;;;;;;12.80;1.00;;;;;;5087311;28;20488;-70
2021/09/07 05:13:51;;;;;;;;;;;12.90;1.00;;;;;;5088653;28;19912;-71
2021/09/07 05:16:17;;;;;;;;;;;13.10;1.00;;;;;;5089458;28;19919;-72
2021/09/07 05:18:42;;;;;;;;;;;13.20;99.90;;;;;;5089065;28;19914;-71
2021/09/07 05:21:08;;;;;;;;;;;13.30;99.90;;;;;;5086392;28;19915;-72
2021/09/07 05:23:33;;;;;;;;;;;13.50;99.00;;;;;;5070608;28;19935;-72
2021/09/07 05:25:59;;;;;;;;;;;13.60;1.00;;;;;;5090381;28;19922;-71
2021/09/07 05:28:24;;;;;;;;;;;13.80;1.00;;;;;;5086570;28;19908;-73
2021/09/07 05:30:50;;;;;;;;;;;13.90;99.90;;;;;;5086274;28;19920;-72
2021/09/07 05:33:15;;;;;;;;;;;14.10;1.00;;;;;;5084934;28;20030;-73
2021/09/07 05:35:41;;;;;;;;;;;14.20;99.90;;;;;;5086260;28;20738;-70
2021/09/07 05:38:06;;;;;;;;;;;14.40;1.00;;;;;;5096907;28;19950;-72
2021/09/07 05:40:32;;;;;;;;;;;14.60;99.90;;;;;;5105966;28;19919;-70
2021/09/07 05:42:57;;;;;;;;;;;14.60;1.00;;;;;;5098401;28;20381;-72
2021/09/07 05:45:23;;;;;;;;;;;14.80;99.90;;;;;;5088650;28;20191;-71
2021/09/07 05:47:48;;;;;;;;;;;15.00;1.00;;;;;;5090570;28;20398;-71
2021/09/07 05:50:15;;;;;;;;;;;15.10;1.00;;;;;;5084315;28;20051;-71
2021/09/07 05:52:41;;;;;;;;;;;15.30;1.00;;;;;;5069765;28;19965;-72
2021/09/07 05:55:07;;;;;;;;;;;15.50;99.90;;;;;;5081857;28;19999;-72
2021/09/07 05:57:32;;;;;;;;;;;15.50;1.00;;;;;;5082396;28;20007;-70
2021/09/07 05:59:58;;;;;;;;;;;15.60;1.00;;;;;;5078147;28;19939;-71
2021/09/07 06:02:23;;;;;;;;;;;15.80;1.00;;;;;;5077301;28;19908;-71
2021/09/07 06:04:49;;;;;;;;;;;16.00;1.00;;;;;;5076608;28;20007;-71
2021/09/07 06:07:15;;;;;;;;;;;16.20;99.90;;;;;;5081003;28;19919;-70
2021/09/07 06:09:40;;;;;;;;;;;16.40;99.90;;;;;;5085781;28;20011;-70
2021/09/07 06:12:06;;;;;;;;;;;16.60;99.90;;;;;;5077159;28;20348;-70
2021/09/07 06:14:33;;;;;;;;;;;16.50;64.80;;;;;;5077968;28;19959;-71
2021/09/07 06:16:59;;;;;;;;;;;16.50;19.80;;;;;;5087178;28;20407;-70
2021/09/07 06:19:25;;;;;;;;;;;16.50;1.00;;;;;;5088868;28;19997;-70
2021/09/07 06:21:50;;;;;;;;;;;16.40;1.00;;;;;;5088796;28;19916;-71
2021/09/07 06:24:16;;;;;;;;;;;16.60;1.00;;;;;;5096812;28;20345;-70
2021/09/07 06:26:42;;;;;;;;;;;16.50;1.00;;;;;;5101456;28;20265;-71
2021/09/07 06:29:07;;;;;;;;;;;16.60;1.00;;;;;;5096702;28;20422;-71
2021/09/07 06:31:33;;;;;;;;;;;16.60;1.00;;;;;;5109128;28;19943;-71
2021/09/07 06:33:58;;;;;;;;;;;16.70;1.00;;;;;;5075382;28;20392;-69
2021/09/07 06:36:24;;;;;;;;;;;16.80;1.00;;;;;;5071698;28;20383;-70
2021/09/07 06:38:49;;;;;;;;;;;17.00;1.00;;;;;;5101060;28;20221;-71
2021/09/07 06:41:14;;;;;;;;;;;17.00;1.00;;;;;;5108929;28;19947;-70
2021/09/07 06:43:41;;;;;;;;;;;17.00;1.00;;;;;;5108769;28;19978;-71
2021/09/07 06:46:07;;;;;;;;;;;17.10;1.00;;;;;;5110118;28;20320;-70
2021/09/07 06:48:32;;;;;;;;;;;17.00;1.00;;;;;;5111272;28;19958;-71
2021/09/07 06:50:58;;;;;;;;;;;17.10;1.00;;;;;;5091526;28;19943;-71
2021/09/07 06:53:23;;;;;;;;;;;17.20;1.00;;;;;;5070411;28;20003;-71
2021/09/07 06:55:49;;;;;;;;;;;17.50;1.00;;;;;;5086307;28;19927;-71
2021/09/07 06:58:14;;;;;;;;;;;17.80;1.00;;;;;;5085756;28;19916;-71
2021/09/07 07:00:40;;;;;;;;;;;18.00;1.00;;;;;;5080050;28;19955;-71
2021/09/07 07:03:05;;;;;;;;;;;18.20;1.00;;;;;;5079839;28;19908;-71
2021/09/07 07:05:30;;;;;;;;;;;18.30;1.00;;;;;;5081696;28;20206;-71
2021/09/07 07:07:56;;;;;;;;;;;18.40;1.00;;;;;;5080315;28;19935;-71
2021/09/07 07:10:21;;;;;;;;;;;18.50;1.00;;;;;;5080921;28;19924;-71
2021/09/07 07:12:47;;;;;;;;;;;18.40;1.00;;;;;;5080187;28;19919;-71
2021/09/07 07:15:13;;;;;;;;;;;18.40;1.00;;;;;;5080704;28;20303;-69
2021/09/07 07:17:38;;;;;;;;;;;18.40;1.00;;;;;;5082617;28;19908;-69
2021/09/07 07:20:04;;;;;;;;;;;18.40;1.00;;;;;;5082144;28;19912;-70
2021/09/07 07:22:29;;;;;;;;;;;18.60;1.00;;;;;;5080634;28;20020;-69
2021/09/07 07:24:55;;;;;;;;;;;18.70;1.00;;;;;;5083891;28;19991;-72
2021/09/07 07:27:21;;;;;;;;;;;18.90;1.00;;;;;;5084185;28;19908;-70
2021/09/07 07:29:46;;;;;;;;;;;19.20;1.00;;;;;;5091228;28;19916;-69
2021/09/07 07:32:12;;;;;;;;;;;20.40;1.00;;;;;;5089802;28;19916;-69
2021/09/07 07:34:37;;;;;;;;;;;22.90;99.90;;;;;;5090830;28;19919;-70
2021/09/07 07:37:05;;;;;;;;;;;25.50;99.90;;;;;;5092257;28;19918;-71
2021/09/07 07:39:34;;;;;;;;;;;27.30;99.90;;;;;;5082350;28;19923;-73
2021/09/07 07:42:00;;;;;;;;;;;28.90;99.90;;;;;;5077375;28;20020;-73
2021/09/07 07:44:25;;;;;;;;;;;31.30;99.90;;;;;;5079480;28;20089;-71
2021/09/07 07:46:51;;;;;;;;;;;33.50;99.90;;;;;;5080588;28;19977;-71
2021/09/07 07:49:17;;;;;;;;;;;35.80;99.90;;;;;;5078055;28;19912;-71
2021/09/07 07:51:43;;;;;;;;;;;36.80;99.90;;;;;;5078778;28;19999;-71
2021/09/07 07:54:09;;;;;;;;;;;38.10;99.90;;;;;;5080426;28;20376;-69
2021/09/07 07:56:36;;;;;;;;;;;39.60;99.90;;;;;;5089866;28;20413;-70
2021/09/07 07:59:01;;;;;;;;;;;40.50;99.90;;;;;;5090797;28;19996;-71
2021/09/07 08:01:27;;;;;;;;;;;41.80;99.90;;;;;;5088218;28;20022;-71
2021/09/07 08:03:53;;;;;;;;;;;42.80;99.90;;;;;;5088202;28;19916;-71
2021/09/07 08:06:18;;;;;;;;;;;43.20;99.90;;;;;;5088175;28;19912;-70
2021/09/07 08:08:44;;;;;;;;;;;43.30;99.90;;;;;;5088740;28;19912;-71
2021/09/07 08:11:09;;;;;;;;;;;44.70;94.00;;;;;;5087988;28;20292;-71
2021/09/07 08:13:35;;;;;;;;;;;45.90;81.70;;;;;;5088410;28;20344;-71
2021/09/07 08:16:00;;;;;;;;;;;46.80;63.40;;;;;;5088740;28;19916;-71
2021/09/07 08:18:26;;;;;;;;;;;46.90;50.00;;;;;;5089559;28;19930;-70
2021/09/07 08:20:51;;;;;;;;;;;47.10;39.10;;;;;;5090519;28;20449;-71
2021/09/07 08:23:17;;;;;;;;;;;47.50;28.80;;;;;;5089433;28;19995;-71
2021/09/07 08:25:42;;;;;;;;;;;48.10;22.20;;;;;;5108827;28;19907;-71
2021/09/07 08:28:08;;;;;;;;;;;48.70;15.90;;;;;;5108385;28;19919;-71
2021/09/07 08:30:34;;;;;;;;;;;49.50;10.00;;;;;;5090093;28;19919;-71
2021/09/07 08:32:59;;;;;;;;;;;50.40;4.90;;;;;;5089624;28;20273;-72
2021/09/07 08:35:25;;;;;;;;;;;50.70;1.00;;;;;;5089602;28;19912;-71
2021/09/07 08:37:50;;;;;;;;;;;50.00;1.00;;;;;;5097510;28;19908;-71
2021/09/07 08:40:16;;;;;;;;;;;47.80;1.00;;;;;;5109136;28;19912;-71
2021/09/07 08:42:42;;;;;;;;;;;46.90;1.00;;;;;;5109488;28;19912;-71
2021/09/07 08:45:08;;;;;;;;;;;47.50;1.00;;;;;;5110605;28;19916;-70
2021/09/07 08:47:34;;;;;;;;;;;47.80;1.00;;;;;;5110485;28;19911;-70
2021/09/07 08:50:01;;;;;;;;;;;49.20;1.00;;;;;;5105865;28;19920;-70
2021/09/07 08:52:27;;;;;;;;;;;50.00;1.00;;;;;;5088918;28;19912;-71
2021/09/07 08:54:52;;;;;;;;;;;50.20;1.00;;;;;;5077571;28;19908;-70
2021/09/07 08:57:18;;;;;;;;;;;50.60;1.00;;;;;;5068985;28;20013;-70
2021/09/07 08:59:43;;;;;;;;;;;49.20;1.00;;;;;;5069511;28;20328;-70
2021/09/07 09:02:13;;;;;;;;;;;48.30;1.00;;;;;;5068875;28;19934;-72
2021/09/07 09:04:39;;;;;;;;;;;47.90;1.00;;;;;;5069339;28;19908;-71
2021/09/07 09:07:05;;;;;;;;;;;48.20;1.00;;;;;;5069656;28;19923;-71
2021/09/07 09:09:38;;;;;;;;;;;47.80;1.00;;;;;;5069498;28;19913;-71
2021/09/07 09:12:05;;;;;;;;;;;47.90;1.00;;;;;;5068176;28;20316;-71
2021/09/07 09:14:33;;;;;;;;;;;48.00;1.00;;;;;;5069247;28;20011;-71
2021/09/07 09:16:59;;;;;;;;;;;47.10;1.00;;;;;;5069138;28;19954;-71
2021/09/07 09:19:25;;;;;;;;;;;47.00;1.00;;;;;;5068700;28;19956;-71
2021/09/07 09:21:51;;;;;;;;;;;46.80;1.00;;;;;;5068967;28;20007;-71
2021/09/07 09:24:17;;;;;;;;;;;46.30;1.00;;;;;;5084124;28;19908;-70
2021/09/07 09:26:50;;;;;;;;;;;45.50;1.00;;;;;;5100706;28;19908;-70
2021/09/07 09:29:23;;;;;;;;;;;45.20;1.00;;;;;;5097797;28;19912;-71
2021/09/07 09:31:49;;;;;;;;;;;45.60;1.00;;;;;;5088443;28;19954;-71
2021/09/07 09:34:14;;;;;;;;;;;46.60;1.00;;;;;;5088354;28;19928;-71
2021/09/07 09:36:45;;;;;;;;;;;45.20;1.00;;;;;;5088767;28;19923;-70
2021/09/07 09:39:10;;;;;;;;;;;45.80;1.00;;;;;;5089813;28;19953;-71
2021/09/07 09:41:48;;;;;;;;;;;45.80;1.00;;;;;;5087077;28;19916;-71
2021/09/07 09:44:14;;;;;;;;;;;44.60;1.00;;;;;;5089757;28;19916;-71
2021/09/07 09:46:40;;;;;;;;;;;43.70;1.00;;;;;;5077092;28;19912;-73
2021/09/07 09:49:12;;;;;;;;;;;43.00;1.00;;;;;;5107005;28;19912;-72
2021/09/07 09:51:39;;;;;;;;;;;42.30;1.00;;;;;;5088664;28;19908;-72
2021/09/07 09:54:05;;;;;;;;;;;42.10;1.00;;;;;;5085884;28;19934;-74
2021/09/07 09:56:30;;;;;;;;;;;41.40;1.00;;;;;;5087218;28;19912;-72
2021/09/07 09:58:56;;;;;;;;;;;41.40;1.00;;;;;;5080603;28;20027;-72
2021/09/07 10:01:22;;;;;;;;;;;41.00;1.00;;;;;;5084465;28;19908;-72
2021/09/07 10:03:48;;;;;;;;;;;40.70;1.00;;;;;;5079255;28;19912;-70
2021/09/07 10:06:16;;;;;;;;;;;40.20;1.00;;;;;;5069275;28;19918;-71
2021/09/07 10:08:41;;;;;;;;;;;40.20;1.00;;;;;;5068659;28;19908;-71
2021/09/07 10:11:10;;;;;;;;;;;39.70;1.00;;;;;;5068128;28;19909;-71
2021/09/07 10:13:38;;;;;;;;;;;39.10;1.00;;;;;;5067986;28;20389;-71
2021/09/07 10:16:10;;;;;;;;;;;38.50;1.00;;;;;;5068306;28;20010;-71
2021/09/07 10:18:52;;;;;;;;;;;38.00;1.00;;;;;;5068498;28;19908;-71
2021/09/07 10:26:39;;;;;;;;;;;37.00;1.00;;;;;;5070705;28;19912;-71
2021/09/07 10:29:07;;;;;;;;;;;36.60;1.00;;;;;;5095422;28;19953;-70
2021/09/07 10:31:40;;;;;;;;;;;35.70;1.00;;;;;;5089470;28;19908;-71
2021/09/07 10:34:06;;;;;;;;;;;36.50;1.00;;;;;;5092131;28;19908;-71
2021/09/07 10:36:35;;;;;;;;;;;36.50;1.00;;;;;;5092059;28;19920;-71
2021/09/07 10:39:02;;;;;;;;;;;35.50;1.00;;;;;;5109684;28;19915;-72
2021/09/07 10:41:33;;;;;;;;;;;35.40;1.00;;;;;;5111932;28;19975;-70
2021/09/07 10:43:59;;;;;;;;;;;35.10;1.00;;;;;;5111912;28;19915;-70
2021/09/07 10:46:37;;;;;;;;;;;35.70;1.00;;;;;;5112405;28;19908;-70
2021/09/07 10:49:15;;;;;;;;;;;35.90;1.00;;;;;;5111936;28;19960;-72
2021/09/07 10:51:59;;;;;;;;;;;35.50;1.00;;;;;;5075091;28;20013;-70
2021/09/07 10:54:25;;;;;;;;;;;34.70;1.00;;;;;;5092073;28;20137;-70
2021/09/07 10:56:51;;;;;;;;;;;33.70;1.00;;;;;;5090769;28;20375;-70
2021/09/07 10:59:36;;;;;;;;;;;33.40;1.00;;;;;;5092109;28;20011;-72
2021/09/07 11:02:31;;;;;;;;;;;32.90;1.00;;;;;;5076307;28;19965;-71
2021/09/07 11:04:58;;;;;;;;;;;33.00;1.00;;;;;;5073309;28;19908;-72
2021/09/07 11:07:36;;;;;;;;;;;32.10;1.00;;;;;;5091894;28;20037;-72
2021/09/07 11:10:02;;;;;;;;;;;32.10;1.00;;;;;;5091139;28;20424;-72
2021/09/07 11:12:28;;;;;;;;;;;32.40;1.00;;;;;;5090622;28;19927;-70
2021/09/07 11:15:05;;;;;;;;;;;32.90;1.00;;;;;;5091971;28;19963;-70
2021/09/07 11:17:30;;;;;;;;;;;32.80;1.00;;;;;;5091891;28;19936;-71
2021/09/07 11:19:57;;;;;;;;;;;32.20;1.00;;;;;;5091444;28;20015;-72
2021/09/07 11:22:29;;;;;;;;;;;31.80;1.00;;;;;;5072477;28;19912;-71
2021/09/07 11:25:05;;;;;;;;;;;31.40;1.00;;;;;;5104435;28;20631;-71
2021/09/07 11:27:49;;;;;;;;;;;31.10;1.00;;;;;;5092753;28;20023;-71
2021/09/07 11:30:34;;;;;;;;;;;30.50;1.00;;;;;;5091719;28;20053;-72
2021/09/07 11:32:59;;;;;;;;;;;30.80;1.00;;;;;;5072027;28;19923;-72
2021/09/07 11:35:25;;;;;;;;;;;30.60;1.00;;;;;;5090471;28;19912;-71
2021/09/07 11:37:58;;;;;;;;;;;30.00;1.00;;;;;;5098877;28;20308;-72
2021/09/07 11:40:24;;;;;;;;;;;30.10;1.00;;;;;;5110983;28;19915;-72
2021/09/07 11:42:49;;;;;;;;;;;30.60;1.00;;;;;;5110333;28;19912;-70
2021/09/07 11:45:18;;;;;;;;;;;30.80;1.00;;;;;;5111192;28;20329;-71
2021/09/07 11:47:44;;;;;;;;;;;31.40;1.00;;;;;;5111766;28;20350;-71
2021/09/07 11:50:14;;;;;;;;;;;31.30;1.00;;;;;;5105740;28;20327;-72
2021/09/07 11:52:39;;;;;;;;;;;30.90;1.00;;;;;;5109047;28;19911;-71
2021/09/07 11:55:08;;;;;;;;;;;30.80;1.00;;;;;;5097368;28;19923;-72
2021/09/07 11:57:45;;;;;;;;;;;31.00;1.00;;;;;;5090281;28;20015;-70
2021/09/07 12:00:11;;;;;;;;;;;30.50;1.00;;;;;;5090579;28;20365;-71
2021/09/07 12:02:37;;;;;;;;;;;29.90;1.00;;;;;;5090139;28;19965;-70
2021/09/07 12:05:02;;;;;;;;;;;29.60;1.00;;;;;;5072383;28;19916;-72
2021/09/07 12:07:28;;;;;;;;;;;29.50;1.00;;;;;;5090496;28;20004;-71
2021/09/07 12:10:04;;;;;;;;;;;29.60;1.00;;;;;;5090679;28;19922;-72
2021/09/07 12:12:29;;;;;;;;;;;29.60;1.00;;;;;;5090019;28;19916;-71
2021/09/07 12:14:58;;;;;;;;;;;29.50;1.00;;;;;;5090452;28;19916;-72
2021/09/07 12:17:24;;;;;;;;;;;29.70;1.00;;;;;;5090258;28;20014;-72
2021/09/07 12:19:51;;;;;;;;;;;29.20;1.00;;;;;;5090444;28;20340;-71
2021/09/07 12:22:23;;;;;;;;;;;28.90;1.00;;;;;;5090055;28;20387;-71
2021/09/07 12:24:57;;;;;;;;;;;28.10;1.00;;;;;;5111641;22;20015;-72
2021/09/07 12:27:24;;;;;;;;;;;28.10;1.00;;;;;;5109494;28;19920;-73
2021/09/07 12:30:05;;;;;;;;;;;27.70;1.00;;;;;;5110865;28;19922;-71
2021/09/07 12:32:30;;;;;;;;;;;27.30;1.00;;;;;;5110102;28;19948;-72
2021/09/07 12:34:56;;;;;;;;;;;27.40;1.00;;;;;;5104258;28;19959;-71
2021/09/07 12:37:21;;;;;;;;;;;27.70;1.00;;;;;;5090056;28;20011;-72
2021/09/07 12:39:47;;;;;;;;;;;27.70;1.00;;;;;;5072082;28;20018;-71
2021/09/07 12:42:12;;;;;;;;;;;27.60;2.20;;;;;;5088231;28;20177;-71
2021/09/07 12:44:38;;;;;;;;;;;27.40;2.10;;;;;;5089833;28;19908;-72
2021/09/07 12:47:03;;;;;;;;;;;27.40;3.30;;;;;;5071511;28;20368;-73
2021/09/07 12:49:29;;;;;;;;;;;27.70;4.40;;;;;;5089467;28;20366;-73
2021/09/07 12:51:54;;;;;;;;;;;27.90;4.30;;;;;;5089124;28;19916;-72
2021/09/07 12:54:19;;;;;;;;;;;28.30;6.00;;;;;;5095990;28;19908;-72
2021/09/07 12:56:45;;;;;;;;;;;28.50;7.00;;;;;;5108687;28;19922;-71
2021/09/07 12:59:11;;;;;;;;;;;28.50;7.30;;;;;;5110326;28;19988;-71
2021/09/07 13:01:36;;;;;;;;;;;28.20;7.90;;;;;;5109588;28;19907;-71
2021/09/07 13:04:02;;;;;;;;;;;28.00;8.50;;;;;;5109398;28;19995;-72
2021/09/07 13:06:28;;;;;;;;;;;27.70;8.50;;;;;;5110015;28;19986;-71
2021/09/07 13:08:54;;;;;;;;;;;27.20;8.70;;;;;;5110154;28;19908;-72
2021/09/07 13:11:21;;;;;;;;;;;26.80;9.20;;;;;;5109675;28;19912;-70
2021/09/07 13:13:47;;;;;;;;;;;26.60;10.20;;;;;;5089788;28;20389;-71
2021/09/07 13:16:13;;;;;;;;;;;26.70;11.60;;;;;;5109796;28;19915;-70
2021/09/07 13:18:39;;;;;;;;;;;26.30;11.60;;;;;;5109687;28;19978;-72
2021/09/07 13:21:07;;;;;;;;;;;26.00;13.10;;;;;;5110069;28;19911;-71
2021/09/07 13:23:33;;;;;;;;;;;26.00;14.30;;;;;;5107043;28;20364;-72
2021/09/07 13:25:58;;;;;;;;;;;26.00;15.10;;;;;;5088027;28;19916;-72
2021/09/07 13:28:24;;;;;;;;;;;26.00;16.50;;;;;;5088441;28;19913;-70
2021/09/07 13:30:49;;;;;;;;;;;26.10;16.60;;;;;;5089695;28;19915;-72
2021/09/07 13:33:15;;;;;;;;;;;25.90;17.00;;;;;;5088189;28;19961;-72
2021/09/07 13:35:41;;;;;;;;;;;25.80;16.90;;;;;;5089277;28;19966;-72
2021/09/07 13:38:07;;;;;;;;;;;25.60;17.70;;;;;;5089866;28;19999;-70
2021/09/07 13:40:33;;;;;;;;;;;25.60;18.50;;;;;;5090197;28;20487;-72
2021/09/07 13:42:58;;;;;;;;;;;25.60;19.40;;;;;;5099548;28;19908;-71
2021/09/07 13:45:24;;;;;;;;;;;25.80;21.80;;;;;;5106548;28;19912;-72
2021/09/07 13:47:50;;;;;;;;;;;25.80;20.40;;;;;;5109954;28;19924;-73
2021/09/07 13:50:15;;;;;;;;;;;25.80;19.80;;;;;;5108505;28;19941;-71
2021/09/07 13:52:41;;;;;;;;;;;25.80;19.90;;;;;;5110954;28;19904;-72
2021/09/07 13:55:07;;;;;;;;;;;25.70;19.80;;;;;;5123816;28;19908;-71
2021/09/07 13:57:33;;;;;;;;;;;25.50;20.00;;;;;;5117459;28;19989;-73
2021/09/07 13:59:59;;;;;;;;;;;25.50;20.40;;;;;;5113060;28;19916;-71
2021/09/07 14:02:24;;;;;;;;;;;25.60;21.80;;;;;;5110052;28;19934;-72
2021/09/07 14:04:50;;;;;;;;;;;25.60;32.90;;;;;;5110389;28;19908;-71
2021/09/07 14:07:15;;;;;;;;;;;25.70;22.80;;;;;;5112992;28;19999;-71
2021/09/07 14:09:41;;;;;;;;;;;25.60;22.80;;;;;;5113615;28;19915;-70
2021/09/07 14:12:07;;;;;;;;;;;25.60;23.20;;;;;;5110791;28;19912;-72
2021/09/07 14:14:32;;;;;;;;;;;25.60;23.40;;;;;;5113495;28;20025;-72
2021/09/07 14:16:58;;;;;;;;;;;25.40;23.90;;;;;;5112973;28;19911;-71
2021/09/07 14:19:24;;;;;;;;;;;25.40;24.40;;;;;;5113176;28;20012;-72
2021/09/07 14:21:50;;;;;;;;;;;25.40;25.40;;;;;;5111699;28;20379;-70
2021/09/07 14:24:15;;;;;;;;;;;25.30;25.40;;;;;;5105159;28;19908;-72
2021/09/07 14:26:41;;;;;;;;;;;25.10;26.00;;;;;;5091955;28;19923;-71